首页
METAR-TAF:

METAR-TAF

机场 :

Tupelo Regional Airport (C.D. Lemons Field)

图珀洛, 密西西比州, 美国

纬度: 34-16-05N, 经度: 088-46-12W, 海拔: 106米

当前天气观测

该预报发布于27分钟前的05:53 UTC
静风
温度 23°C
湿度 89%
气压 1017 hPa
能見度: 16.1公里
天空无云

METAR: KTUP 270553Z AUTO 00000KT 10SM CLR 23/21 A3004 RMK AO2 SLP169 T02330206 10322 20233 403440200 58004 $

时间: 01:20 (06:20 UTC)

预报

该预报发布于1小时和0分钟前的05:20 UTC
预报有效从27日的 06点(UTC)到 28日的 06点(UTC)
风速节,风向
能見度: 10公里
多云层高于25000英尺
从 27日的 1500点(UTC)
风速5节,风向南转西南
能見度: 10公里
散云层高于25000英尺
从 27日的 1900点(UTC)
风速9节,风向
能見度: 10公里
少量云层高于6000英尺
散云层高于25000英尺
从 28日的 0000点(UTC)
风速3节,风向
能見度: 10公里
少量云层高于25000英尺

TAF: KTUP 270520Z 2706/2806 00000KT P6SM BKN250 FM271500 21005KT P6SM SCT250 FM271900 19009KT P6SM FEW060 SCT250 FM280000 17003KT P6SM FEW250

超过4000个机场的气象观测和天气预报(METAR&TAF报告)。

可查询的气象台以黄色和红色小点在地图上表示。

将鼠标移到小点上方,可查看气象台名称。

然后点击查看天气观测和预报。

如需切换地图:点击带黑十字的绿色按钮放大地图;点击带横线的绿色按钮缩小地图;或者点击绿色箭头查看邻近地区的地图。


METAR-TAF: